createdAt,value
2023-05-04T00:01:30.375Z,9.07
2023-05-04T00:03:57.027Z,9.32
2023-05-04T00:06:23.704Z,8.32
2023-05-04T00:08:50.225Z,8.23
2023-05-04T00:11:17.432Z,8.45
2023-05-04T00:13:44.054Z,9.52
2023-05-04T00:16:11.160Z,8.35
2023-05-04T00:18:38.171Z,11.00
2023-05-04T00:21:04.985Z,9.40
2023-05-04T00:23:31.543Z,8.23
2023-05-04T00:26:03.875Z,9.90
2023-05-04T00:28:30.463Z,8.13
2023-05-04T00:30:56.950Z,8.90
2023-05-04T00:33:23.588Z,9.32
2023-05-04T00:35:50.753Z,8.15
2023-05-04T00:38:19.026Z,9.13
2023-05-04T00:40:45.691Z,8.82
2023-05-04T00:43:12.348Z,8.00
2023-05-04T00:45:40.064Z,6.80
2023-05-04T00:48:07.199Z,8.07
2023-05-04T00:50:34.871Z,8.20
2023-05-04T00:53:07.542Z,7.32
2023-05-04T00:55:37.769Z,7.47
2023-05-04T00:58:04.947Z,7.45
2023-05-04T01:00:31.901Z,7.07
2023-05-04T01:02:58.721Z,7.00
2023-05-04T01:05:31.443Z,6.40
2023-05-04T01:08:15.178Z,7.78
2023-05-04T01:10:52.417Z,6.05
2023-05-04T01:13:21.849Z,8.23
2023-05-04T01:15:49.754Z,8.52
2023-05-04T01:18:16.625Z,7.88
2023-05-04T01:20:43.361Z,6.30
2023-05-04T01:23:10.960Z,5.95
2023-05-04T01:25:53.496Z,6.47
2023-05-04T01:28:33.684Z,6.35
2023-05-04T01:31:02.694Z,6.00
2023-05-04T01:33:31.724Z,5.90
2023-05-04T01:35:59.234Z,6.03
2023-05-04T01:38:25.824Z,5.60
2023-05-04T01:40:52.380Z,5.95
2023-05-04T01:43:18.893Z,5.43
2023-05-04T01:45:45.400Z,6.32
2023-05-04T01:48:11.895Z,5.80
2023-05-04T01:50:38.406Z,5.72
2023-05-04T01:53:05.066Z,6.95
2023-05-04T01:55:31.568Z,7.18
2023-05-04T01:57:58.124Z,4.57
2023-05-04T02:00:24.671Z,4.57
2023-05-04T02:02:51.311Z,6.22
2023-05-04T02:05:17.944Z,4.68
2023-05-04T02:07:44.453Z,4.43
2023-05-04T02:10:11.431Z,5.57
2023-05-04T02:12:38.055Z,4.53
2023-05-04T02:15:04.842Z,4.90
2023-05-04T02:17:31.803Z,5.35
2023-05-04T02:19:58.286Z,4.53
2023-05-04T02:22:24.885Z,5.57
2023-05-04T02:24:51.429Z,6.55
2023-05-04T02:27:17.979Z,6.47
2023-05-04T02:29:44.550Z,4.93
2023-05-04T02:32:11.092Z,5.72
2023-05-04T02:34:37.637Z,5.13
2023-05-04T02:37:06.531Z,4.47
2023-05-04T02:39:33.779Z,4.65
2023-05-04T02:42:02.138Z,4.18
2023-05-04T02:44:28.652Z,6.05
2023-05-04T02:46:55.209Z,5.68
2023-05-04T02:49:21.772Z,4.57
2023-05-04T02:51:48.294Z,5.18
2023-05-04T02:54:14.840Z,4.00
2023-05-04T02:56:41.340Z,4.10
2023-05-04T02:59:07.907Z,4.95
2023-05-04T03:01:35.007Z,3.65
2023-05-04T03:04:01.710Z,4.25
2023-05-04T03:06:28.225Z,5.30
2023-05-04T03:08:54.744Z,3.45
2023-05-04T03:11:21.659Z,4.35
2023-05-04T03:13:48.185Z,3.95
2023-05-04T03:16:14.779Z,3.70
2023-05-04T03:18:41.475Z,5.20
2023-05-04T03:21:08.047Z,4.35
2023-05-04T03:23:34.638Z,4.88
2023-05-04T03:26:01.195Z,3.58
2023-05-04T03:28:27.770Z,4.05
2023-05-04T03:30:54.323Z,3.90
2023-05-04T03:33:20.891Z,5.00
2023-05-04T03:35:47.538Z,4.72
2023-05-04T03:38:14.132Z,3.08
2023-05-04T03:40:40.782Z,4.38
2023-05-04T03:43:07.319Z,2.83
2023-05-04T03:45:34.349Z,3.35
2023-05-04T03:48:00.903Z,4.95
2023-05-04T03:50:27.583Z,3.70
2023-05-04T03:52:54.170Z,3.58
2023-05-04T03:55:20.724Z,2.88
2023-05-04T03:57:47.248Z,3.78
2023-05-04T04:00:14.545Z,3.15
2023-05-04T04:02:41.338Z,3.92
2023-05-04T04:05:08.382Z,4.00
2023-05-04T04:07:34.920Z,3.65
2023-05-04T04:10:01.602Z,3.38
2023-05-04T04:12:28.290Z,3.65
2023-05-04T04:14:54.872Z,3.63
2023-05-04T04:17:21.569Z,3.67
2023-05-04T04:19:48.199Z,3.35
2023-05-04T04:22:14.710Z,3.72
2023-05-04T04:24:41.224Z,3.05
2023-05-04T04:27:07.754Z,3.58
2023-05-04T04:29:35.592Z,2.92
2023-05-04T04:32:03.171Z,3.45
2023-05-04T04:34:29.794Z,4.38
2023-05-04T04:36:56.323Z,3.28
2023-05-04T04:39:23.613Z,4.32
2023-05-04T04:41:50.433Z,3.90
2023-05-04T04:44:17.084Z,3.78
2023-05-04T04:46:45.664Z,4.55
2023-05-04T04:49:12.977Z,4.32
2023-05-04T04:51:41.700Z,3.95
2023-05-04T04:54:08.254Z,2.65
2023-05-04T04:56:34.856Z,6.22
2023-05-04T04:59:01.446Z,4.65
2023-05-04T05:01:28.106Z,5.22
2023-05-04T05:03:54.721Z,3.75
2023-05-04T05:06:21.541Z,5.25
2023-05-04T05:08:48.070Z,5.32
2023-05-04T05:11:14.571Z,3.90
2023-05-04T05:13:41.121Z,4.72
2023-05-04T05:16:07.717Z,6.43
2023-05-04T05:18:34.487Z,4.30
2023-05-04T05:21:01.134Z,6.03
2023-05-04T05:23:27.739Z,4.78
2023-05-04T05:25:55.790Z,7.05
2023-05-04T05:28:22.925Z,7.68
2023-05-04T05:30:51.890Z,6.43
2023-05-04T05:33:18.749Z,4.57
2023-05-04T05:35:45.689Z,4.30
2023-05-04T05:38:12.263Z,5.28
2023-05-04T05:40:38.809Z,4.80
2023-05-04T05:43:08.011Z,4.38
2023-05-04T05:45:34.557Z,5.97
2023-05-04T05:48:01.144Z,4.50
2023-05-04T05:50:27.735Z,4.85
2023-05-04T05:52:54.364Z,6.57
2023-05-04T05:55:20.918Z,4.18
2023-05-04T05:57:47.483Z,5.60
2023-05-04T06:00:14.491Z,6.20
2023-05-04T06:02:41.176Z,5.20
2023-05-04T06:05:08.101Z,4.45
2023-05-04T06:07:34.591Z,6.28
2023-05-04T06:10:01.338Z,5.57
2023-05-04T06:12:28.210Z,6.25
2023-05-04T06:14:54.775Z,6.38
2023-05-04T06:17:21.759Z,8.25
2023-05-04T06:19:50.832Z,5.78
2023-05-04T06:22:17.732Z,4.38
2023-05-04T06:24:44.236Z,6.20
2023-05-04T06:27:11.126Z,7.60
2023-05-04T06:29:40.083Z,8.98
2023-05-04T06:32:07.066Z,9.43
2023-05-04T06:34:33.721Z,5.47
2023-05-04T06:37:00.534Z,5.63
2023-05-04T06:39:27.050Z,5.65
2023-05-04T06:41:55.059Z,7.10
2023-05-04T06:44:22.359Z,5.72
2023-05-04T06:46:48.902Z,6.20
2023-05-04T06:49:17.599Z,5.70
2023-05-04T06:51:44.290Z,6.47
2023-05-04T06:54:11.220Z,4.72
2023-05-04T06:56:39.636Z,7.70
2023-05-04T06:59:07.084Z,11.95
2023-05-04T07:01:33.690Z,6.75
2023-05-04T07:04:00.425Z,5.07
2023-05-04T07:06:27.249Z,6.22
2023-05-04T07:08:53.851Z,5.97
2023-05-04T07:11:20.562Z,6.93
2023-05-04T07:13:47.274Z,6.38
2023-05-04T07:16:13.872Z,6.97
2023-05-04T07:18:40.537Z,6.50
2023-05-04T07:21:26.934Z,5.30
2023-05-04T07:23:55.470Z,6.53
2023-05-04T07:26:23.084Z,7.40
2023-05-04T07:28:49.691Z,6.43
2023-05-04T07:31:16.242Z,6.75
2023-05-04T07:33:42.883Z,5.35
2023-05-04T07:36:09.597Z,4.13
2023-05-04T07:38:36.581Z,4.63
2023-05-04T07:41:03.138Z,6.28
2023-05-04T07:43:29.715Z,4.18
2023-05-04T07:45:56.588Z,6.88
2023-05-04T07:48:25.224Z,5.20
2023-05-04T07:50:53.763Z,6.00
2023-05-04T07:53:25.425Z,5.95
2023-05-04T07:55:54.291Z,5.60
2023-05-04T07:58:21.038Z,7.35
2023-05-04T08:00:47.669Z,6.68
2023-05-04T08:03:14.184Z,5.50
2023-05-04T08:05:40.946Z,6.63
2023-05-04T08:08:08.867Z,5.72
2023-05-04T08:10:38.712Z,7.15
2023-05-04T08:13:05.685Z,5.57
2023-05-04T08:15:32.297Z,4.22
2023-05-04T08:17:59.165Z,6.90
2023-05-04T08:20:25.788Z,4.95
2023-05-04T08:22:52.463Z,5.60
2023-05-04T08:25:19.301Z,5.82
2023-05-04T08:27:45.982Z,4.70
2023-05-04T08:30:13.141Z,5.07
2023-05-04T08:32:40.163Z,7.95
2023-05-04T08:35:07.106Z,4.93
2023-05-04T08:37:34.083Z,5.55
2023-05-04T08:40:00.662Z,6.72
2023-05-04T08:42:31.619Z,5.50
2023-05-04T08:44:59.113Z,7.60
2023-05-04T08:47:26.530Z,5.68
2023-05-04T08:49:54.352Z,6.53
2023-05-04T08:52:24.619Z,5.20
2023-05-04T08:54:55.079Z,5.65
2023-05-04T08:57:26.036Z,8.65
2023-05-04T08:59:54.024Z,5.20
2023-05-04T09:02:22.595Z,6.10
2023-05-04T09:04:53.202Z,6.38
2023-05-04T09:07:21.639Z,5.45
2023-05-04T09:09:50.898Z,4.78
2023-05-04T09:12:19.128Z,5.00
2023-05-04T09:14:49.257Z,4.93
2023-05-04T09:17:18.053Z,5.47
2023-05-04T09:19:44.814Z,6.57
2023-05-04T09:22:18.317Z,4.35
2023-05-04T09:24:46.319Z,5.13
2023-05-04T09:27:13.983Z,4.90
2023-05-04T09:29:44.375Z,4.32
2023-05-04T09:32:13.452Z,5.75
2023-05-04T09:34:50.613Z,4.28
2023-05-04T09:37:18.630Z,4.28
2023-05-04T09:39:56.008Z,5.95
2023-05-04T09:42:23.747Z,4.47
2023-05-04T09:45:04.433Z,4.68
2023-05-04T09:47:39.534Z,3.47
2023-05-04T09:50:19.112Z,4.10
2023-05-04T09:52:48.084Z,3.85
2023-05-04T09:55:16.333Z,3.58
2023-05-04T09:57:44.298Z,3.38
2023-05-04T10:00:19.121Z,3.25
2023-05-04T10:02:47.644Z,3.88
2023-05-04T10:05:17.265Z,3.58
2023-05-04T10:07:44.804Z,3.90
2023-05-04T10:10:15.121Z,6.13
2023-05-04T10:12:41.676Z,4.53
2023-05-04T10:15:10.310Z,4.88
2023-05-04T10:18:03.119Z,3.25
2023-05-04T10:21:08.129Z,3.85
2023-05-04T10:24:00.866Z,3.85
2023-05-04T10:26:51.649Z,6.05
2023-05-04T10:29:26.563Z,4.32
2023-05-04T10:31:53.482Z,6.47
2023-05-04T10:34:25.836Z,7.45
2023-05-04T10:36:52.766Z,3.78
2023-05-04T10:39:24.237Z,4.32
2023-05-04T10:42:04.677Z,4.65
2023-05-04T10:44:33.230Z,6.72
2023-05-04T10:47:08.888Z,5.63
2023-05-04T10:49:36.020Z,5.05
2023-05-04T10:52:13.453Z,3.35
2023-05-04T10:54:41.357Z,3.58
2023-05-04T10:57:17.586Z,5.10
2023-05-04T10:59:57.391Z,2.95
2023-05-04T11:02:28.855Z,6.63
2023-05-04T11:05:20.594Z,3.55
2023-05-04T11:07:50.723Z,3.88
2023-05-04T11:10:25.197Z,4.40
2023-05-04T11:12:52.756Z,3.17
2023-05-04T11:15:19.498Z,4.45
2023-05-04T11:17:53.066Z,4.97
2023-05-04T11:22:50.415Z,4.45
2023-05-04T11:25:17.581Z,2.28
2023-05-04T11:27:44.286Z,3.53
2023-05-04T11:30:11.195Z,3.28
2023-05-04T11:32:43.561Z,3.22
2023-05-04T11:35:24.940Z,7.13
2023-05-04T11:37:51.682Z,3.53
2023-05-04T11:40:20.525Z,3.92
2023-05-04T11:42:48.487Z,4.80
2023-05-04T11:45:30.404Z,3.00
2023-05-04T11:47:58.531Z,4.22
2023-05-04T11:50:26.859Z,2.63
2023-05-04T11:53:08.953Z,2.75
2023-05-04T11:55:36.515Z,2.85
2023-05-04T11:58:04.921Z,3.47
2023-05-04T12:00:45.680Z,3.05
2023-05-04T12:03:14.683Z,3.25
2023-05-04T12:05:48.736Z,2.67
2023-05-04T12:08:31.604Z,3.55
2023-05-04T12:11:17.421Z,5.07
2023-05-04T12:13:46.025Z,2.33
2023-05-04T12:16:19.463Z,4.55
2023-05-04T12:18:47.419Z,4.22
2023-05-04T12:21:18.780Z,2.75
2023-05-04T12:23:46.926Z,5.72
2023-05-04T12:26:14.383Z,2.92
2023-05-04T12:28:42.639Z,3.30
2023-05-04T12:31:10.233Z,5.75
2023-05-04T12:33:36.820Z,4.18
2023-05-04T12:36:05.719Z,4.70
2023-05-04T12:38:32.575Z,3.58
2023-05-04T12:41:04.037Z,4.45
2023-05-04T12:43:31.179Z,4.00
2023-05-04T12:45:57.817Z,6.75
2023-05-04T12:48:26.328Z,2.72
2023-05-04T12:50:53.040Z,3.42
2023-05-04T12:53:22.257Z,3.35
2023-05-04T12:55:48.980Z,4.10
2023-05-04T12:58:15.577Z,4.53
2023-05-04T13:00:45.117Z,3.45
2023-05-04T13:03:12.965Z,3.58
2023-05-04T13:05:39.799Z,3.38
2023-05-04T13:08:06.403Z,3.70
2023-05-04T13:10:32.969Z,6.35
2023-05-04T13:12:59.517Z,3.00
2023-05-04T13:15:26.121Z,3.95
2023-05-04T13:17:53.765Z,5.05
2023-05-04T13:20:20.341Z,4.53
2023-05-04T13:22:50.773Z,7.25
2023-05-04T13:25:17.396Z,4.07
2023-05-04T13:27:44.215Z,5.07
2023-05-04T13:30:11.528Z,3.60
2023-05-04T13:32:38.236Z,4.47
2023-05-04T13:35:05.428Z,3.92
2023-05-04T13:37:32.154Z,4.95
2023-05-04T13:39:59.532Z,4.05
2023-05-04T13:42:26.172Z,4.63
2023-05-04T13:44:52.937Z,5.28
2023-05-04T13:47:19.476Z,5.63
2023-05-04T13:49:46.060Z,4.45
2023-05-04T13:52:13.495Z,5.50
2023-05-04T13:54:40.299Z,3.85
2023-05-04T13:57:07.250Z,4.95
2023-05-04T13:59:34.217Z,4.55
2023-05-04T14:02:01.392Z,5.22
2023-05-04T14:04:27.964Z,5.07
2023-05-04T14:06:54.768Z,6.03
2023-05-04T14:09:21.454Z,4.60
2023-05-04T14:11:48.064Z,3.35
2023-05-04T14:14:14.774Z,4.32
2023-05-04T14:16:41.921Z,3.13
2023-05-04T14:19:08.671Z,4.50
2023-05-04T14:21:36.136Z,4.40
2023-05-04T14:24:03.457Z,5.05
2023-05-04T14:26:31.840Z,5.95
2023-05-04T14:28:58.547Z,7.07
2023-05-04T14:31:25.379Z,9.85
2023-05-04T14:33:51.996Z,8.68
2023-05-04T14:36:18.766Z,4.53
2023-05-04T14:38:45.552Z,4.47
2023-05-04T14:41:13.656Z,4.35
2023-05-04T14:43:41.813Z,4.68
2023-05-04T14:46:12.990Z,4.82
2023-05-04T14:48:39.700Z,3.78
2023-05-04T14:51:06.539Z,8.02
2023-05-04T14:53:36.907Z,5.28
2023-05-04T14:56:04.538Z,5.22
2023-05-04T14:58:31.198Z,4.35
2023-05-04T15:00:57.748Z,6.40
2023-05-04T15:03:25.906Z,5.28
2023-05-04T15:05:52.756Z,4.35
2023-05-04T15:08:19.380Z,4.90
2023-05-04T15:10:46.061Z,3.60
2023-05-04T15:13:15.563Z,8.20
2023-05-04T15:15:42.366Z,6.03
2023-05-04T15:18:09.445Z,3.85
2023-05-04T15:20:39.170Z,8.43
2023-05-04T15:23:15.112Z,5.85
2023-05-04T15:25:42.054Z,5.55
2023-05-04T15:28:10.714Z,6.78
2023-05-04T15:30:41.770Z,6.65
2023-05-04T15:33:09.018Z,5.97
2023-05-04T15:35:36.479Z,5.35
2023-05-04T15:38:03.154Z,3.65
2023-05-04T15:40:30.126Z,4.45
2023-05-04T15:42:56.665Z,5.63
2023-05-04T15:45:23.239Z,5.95
2023-05-04T15:47:49.877Z,5.28
2023-05-04T15:50:16.439Z,5.25
2023-05-04T15:52:43.040Z,5.43
2023-05-04T15:55:24.388Z,4.90
2023-05-04T15:57:52.886Z,6.33
2023-05-04T16:00:20.836Z,5.03
2023-05-04T16:02:47.514Z,3.38
2023-05-04T16:05:14.123Z,4.88
2023-05-04T16:07:40.790Z,4.10
2023-05-04T16:10:08.251Z,5.18
2023-05-04T16:12:34.952Z,6.55
2023-05-04T16:15:01.702Z,5.53
2023-05-04T16:17:29.306Z,4.45
2023-05-04T16:19:56.077Z,5.45
2023-05-04T16:22:22.695Z,3.92
2023-05-04T16:24:49.223Z,3.42
2023-05-04T16:27:16.351Z,4.30
2023-05-04T16:29:42.912Z,7.05
2023-05-04T16:32:09.511Z,4.22
2023-05-04T16:34:36.022Z,3.67
2023-05-04T16:37:02.735Z,4.35
2023-05-04T16:39:34.398Z,4.70
2023-05-04T16:42:02.256Z,3.70
2023-05-04T16:44:31.317Z,3.80
2023-05-04T16:47:00.941Z,4.57
2023-05-04T16:49:27.531Z,4.97
2023-05-04T16:51:55.245Z,6.95
2023-05-04T16:54:24.060Z,7.10
2023-05-04T16:56:50.972Z,5.50
2023-05-04T16:59:17.604Z,5.18
2023-05-04T17:01:44.556Z,5.85
2023-05-04T17:04:11.187Z,4.70
2023-05-04T17:06:38.131Z,4.97
2023-05-04T17:09:05.181Z,5.40
2023-05-04T17:11:32.103Z,11.95
2023-05-04T17:13:59.362Z,10.27
2023-05-04T17:16:26.049Z,9.38
2023-05-04T17:18:52.694Z,7.78
2023-05-04T17:21:19.872Z,9.00
2023-05-04T17:23:46.434Z,8.85
2023-05-04T17:26:14.143Z,11.57
2023-05-04T17:28:40.703Z,8.43
2023-05-04T17:31:11.417Z,7.63
2023-05-04T17:33:38.403Z,11.60
2023-05-04T17:36:05.979Z,11.70
2023-05-04T17:38:32.652Z,9.93
2023-05-04T17:40:59.201Z,12.00
2023-05-04T17:43:26.195Z,9.38
2023-05-04T17:45:54.996Z,11.65
2023-05-04T17:48:23.883Z,7.78
2023-05-04T17:50:50.908Z,9.15
2023-05-04T17:53:17.523Z,9.02
2023-05-04T17:55:44.147Z,11.02
2023-05-04T17:58:10.747Z,8.90
2023-05-04T18:00:37.257Z,8.68
2023-05-04T18:03:03.969Z,8.20
2023-05-04T18:05:32.000Z,8.57
2023-05-04T18:07:58.721Z,12.90
2023-05-04T18:10:25.317Z,12.40
2023-05-04T18:12:51.909Z,9.00
2023-05-04T18:15:18.571Z,11.13
2023-05-04T18:17:45.291Z,9.95
2023-05-04T18:20:13.067Z,10.88
2023-05-04T18:22:39.739Z,9.57
2023-05-04T18:25:06.855Z,12.57
2023-05-04T18:27:34.448Z,11.57
2023-05-04T18:30:05.014Z,8.90
2023-05-04T18:32:31.749Z,8.68
2023-05-04T18:34:58.661Z,11.05
2023-05-04T18:37:25.590Z,7.65
2023-05-04T18:39:52.437Z,10.20
2023-05-04T18:42:19.030Z,13.13
2023-05-04T18:44:45.939Z,7.53
2023-05-04T18:47:12.522Z,8.73
2023-05-04T18:49:39.035Z,15.73
2023-05-04T18:52:05.803Z,8.48
2023-05-04T18:54:32.694Z,8.10
2023-05-04T18:56:59.351Z,10.60
2023-05-04T18:59:26.168Z,14.07
2023-05-04T19:01:53.034Z,9.70
2023-05-04T19:04:19.754Z,9.63
2023-05-04T19:06:47.664Z,12.00
2023-05-04T19:09:14.878Z,14.65
2023-05-04T19:11:41.540Z,8.88
2023-05-04T19:14:08.135Z,11.98
2023-05-04T19:16:34.790Z,5.93
2023-05-04T19:19:01.415Z,11.23
2023-05-04T19:21:28.557Z,7.28
2023-05-04T19:23:55.114Z,10.45
2023-05-04T19:26:21.901Z,9.57
2023-05-04T19:28:48.482Z,7.43
2023-05-04T19:31:15.753Z,9.43
2023-05-04T19:33:48.433Z,10.25
2023-05-04T19:36:15.979Z,7.60
2023-05-04T19:38:42.584Z,8.63
2023-05-04T19:41:09.218Z,8.63
2023-05-04T19:43:35.816Z,7.00
2023-05-04T19:46:02.634Z,6.20
2023-05-04T19:48:29.210Z,7.25
2023-05-04T19:50:56.008Z,6.03
2023-05-04T19:53:22.617Z,6.75
2023-05-04T19:55:49.202Z,6.90
2023-05-04T19:58:15.926Z,7.28
2023-05-04T20:00:42.491Z,8.18
2023-05-04T20:03:09.081Z,6.32
2023-05-04T20:05:35.718Z,7.75
2023-05-04T20:08:04.847Z,7.95
2023-05-04T20:10:31.907Z,7.15
2023-05-04T20:12:58.462Z,10.10
2023-05-04T20:15:25.215Z,6.88
2023-05-04T20:17:52.031Z,8.75
2023-05-04T20:20:20.067Z,9.07
2023-05-04T20:22:47.955Z,6.82
2023-05-04T20:25:15.265Z,8.40
2023-05-04T20:27:41.806Z,7.47
2023-05-04T20:30:08.726Z,9.65
2023-05-04T20:32:35.580Z,8.50
2023-05-04T20:35:02.318Z,8.55
2023-05-04T20:37:28.900Z,8.00
2023-05-04T20:39:55.432Z,15.43
2023-05-04T20:42:21.994Z,8.57
2023-05-04T20:44:48.479Z,7.95
2023-05-04T20:47:15.013Z,9.63
2023-05-04T20:49:41.580Z,7.90
2023-05-04T20:52:08.138Z,10.10
2023-05-04T20:54:34.630Z,7.57
2023-05-04T20:57:01.612Z,7.80
2023-05-04T20:59:28.256Z,6.57
2023-05-04T21:01:55.024Z,10.23
2023-05-04T21:04:21.623Z,11.48
2023-05-04T21:06:48.554Z,9.50
2023-05-04T21:09:15.525Z,10.93
2023-05-04T21:11:42.061Z,8.82
2023-05-04T21:14:08.591Z,7.30
2023-05-04T21:16:35.103Z,6.70
2023-05-04T21:19:01.775Z,8.85
2023-05-04T21:21:28.318Z,6.97
2023-05-04T21:23:54.819Z,8.95
2023-05-04T21:26:21.997Z,7.63
2023-05-04T21:28:48.654Z,6.53
2023-05-04T21:31:15.350Z,8.07
2023-05-04T21:33:41.950Z,12.82
2023-05-04T21:36:15.118Z,9.90
2023-05-04T21:38:42.040Z,8.90
2023-05-04T21:41:15.924Z,10.23
2023-05-04T21:43:43.303Z,6.63
2023-05-04T21:46:11.898Z,6.68
2023-05-04T21:48:38.692Z,6.28
2023-05-04T21:51:05.412Z,7.07
2023-05-04T21:53:34.851Z,8.75
2023-05-04T21:56:05.789Z,6.28
2023-05-04T21:58:32.347Z,7.13
2023-05-04T22:00:59.271Z,4.85
2023-05-04T22:03:25.855Z,9.15
2023-05-04T22:05:57.658Z,6.20
2023-05-04T22:08:25.331Z,7.32
2023-05-04T22:10:53.537Z,5.88
2023-05-04T22:13:20.296Z,6.50
2023-05-04T22:15:50.302Z,7.65
2023-05-04T22:18:17.347Z,7.18
2023-05-04T22:20:43.977Z,6.63
2023-05-04T22:23:10.560Z,4.78
2023-05-04T22:25:37.345Z,8.30
2023-05-04T22:28:03.936Z,5.53
2023-05-04T22:30:30.535Z,5.65
2023-05-04T22:32:57.284Z,5.60
2023-05-04T22:35:23.845Z,7.35
2023-05-04T22:37:50.916Z,7.15
2023-05-04T22:40:17.538Z,8.48
2023-05-04T22:42:44.971Z,5.85
2023-05-04T22:45:14.083Z,5.10
2023-05-04T22:47:41.480Z,5.32
2023-05-04T22:50:09.250Z,6.22
2023-05-04T22:52:39.644Z,9.07
2023-05-04T22:55:06.788Z,3.47
2023-05-04T22:57:33.377Z,6.13
2023-05-04T22:59:59.904Z,4.88
2023-05-04T23:02:26.542Z,6.80
2023-05-04T23:04:53.269Z,5.10
2023-05-04T23:07:19.909Z,8.30
2023-05-04T23:09:47.095Z,5.18
2023-05-04T23:12:14.012Z,4.70
2023-05-04T23:14:40.785Z,6.63
2023-05-04T23:17:07.711Z,6.03
2023-05-04T23:19:34.215Z,10.48
2023-05-04T23:22:00.975Z,6.30
2023-05-04T23:24:27.557Z,4.95
2023-05-04T23:26:54.204Z,7.03
2023-05-04T23:29:20.862Z,6.22
2023-05-04T23:31:47.460Z,5.25
2023-05-04T23:34:14.076Z,6.03
2023-05-04T23:36:40.797Z,6.22
2023-05-04T23:39:08.423Z,9.18
2023-05-04T23:41:34.964Z,5.43
2023-05-04T23:44:04.385Z,7.25
2023-05-04T23:46:31.248Z,6.93
2023-05-04T23:48:57.979Z,7.40
2023-05-04T23:51:24.536Z,8.10
2023-05-04T23:53:51.210Z,6.82
2023-05-04T23:56:17.886Z,5.70
2023-05-04T23:58:44.400Z,5.50
